Time;durP1;ratioP1;P1;durP2;ratioP2;P2;SDS_P1;SDS_P2;PMS_P1;PMS_P2;Temp;Humidity;BMP_temperature;BMP_pressure;BME280_temperature;BME280_humidity;BME280_pressure;Samples;Min_cycle;Max_cycle;Signal;HPM_P1;HPM_P2
2022/04/21 00:02:21;;;;;;;3.38;2.55;;;12.90;50.80;;;;;;5054541;28;20021;-39
2022/04/21 00:04:46;;;;;;;2.88;2.30;;;12.90;51.00;;;;;;5054510;28;20550;-40
2022/04/21 00:07:12;;;;;;;2.88;2.38;;;12.90;51.10;;;;;;5054394;28;20032;-40
2022/04/21 00:09:37;;;;;;;4.68;2.65;;;12.80;51.20;;;;;;5054586;28;20029;-39
2022/04/21 00:12:03;;;;;;;5.15;2.80;;;12.80;51.40;;;;;;5054389;28;20480;-38
2022/04/21 00:14:31;;;;;;;3.85;2.45;;;12.70;51.40;;;;;;5036636;28;20033;-39
2022/04/21 00:16:56;;;;;;;3.83;3.20;;;12.70;51.60;;;;;;5054507;28;20044;-39
2022/04/21 00:19:22;;;;;;;7.05;2.85;;;12.70;51.70;;;;;;5054105;28;20029;-39
2022/04/21 00:24:32;;;;;;;2.72;2.30;;;12.70;51.90;;;;;;5054384;28;20123;-40
2022/04/21 00:26:57;;;;;;;3.05;2.42;;;12.60;52.00;;;;;;5054233;28;20131;-39
2022/04/21 00:29:23;;;;;;;4.32;2.40;;;12.70;52.20;;;;;;5054296;28;20036;-39
2022/04/21 00:31:49;;;;;;;3.95;2.50;;;12.70;52.20;;;;;;5036292;28;20083;-39
2022/04/21 00:34:18;;;;;;;4.90;2.80;;;12.70;52.30;;;;;;5054033;28;20033;-38
2022/04/21 00:36:47;;;;;;;5.05;2.55;;;12.60;52.40;;;;;;5053821;28;20021;-39
2022/04/21 00:39:12;;;;;;;3.67;2.80;;;12.60;52.50;;;;;;5035841;28;20508;-39
2022/04/21 00:41:40;;;;;;;4.25;2.63;;;12.60;52.60;;;;;;5054067;28;20047;-40
2022/04/21 00:44:06;;;;;;;4.75;2.60;;;12.60;52.80;;;;;;5054184;28;20100;-39
2022/04/21 00:46:32;;;;;;;4.40;2.50;;;12.60;52.90;;;;;;5053631;28;20053;-40
2022/04/21 00:48:57;;;;;;;5.57;2.83;;;12.50;53.00;;;;;;5053605;28;20047;-39
2022/04/21 00:51:24;;;;;;;4.03;2.70;;;12.50;53.20;;;;;;5035253;28;20029;-38
2022/04/21 00:53:49;;;;;;;2.63;2.40;;;12.50;53.40;;;;;;5053612;28;20029;-39
2022/04/21 00:56:15;;;;;;;3.97;2.88;;;12.50;53.70;;;;;;5053512;28;20469;-39
2022/04/21 00:58:43;;;;;;;6.07;2.90;;;12.40;53.70;;;;;;5053513;28;20524;-40
2022/04/21 01:02:46;;;;;;;4.30;3.15;;;12.40;53.90;;;;;;5053808;28;20110;-39
2022/04/21 01:03:55;;;;;;;4.35;2.63;;;12.40;54.20;;;;;;5053336;28;20067;-40
2022/04/21 01:06:22;;;;;;;4.35;3.00;;;12.30;54.50;;;;;;5053701;28;20548;-39
2022/04/21 01:08:48;;;;;;;3.08;2.78;;;12.30;54.80;;;;;;5053813;28;20062;-40
2022/04/21 01:11:16;;;;;;;3.50;2.88;;;12.20;54.80;;;;;;5053384;28;20471;-38
2022/04/21 01:13:42;;;;;;;5.97;3.13;;;12.20;55.00;;;;;;5035219;28;20029;-39
2022/04/21 01:16:07;;;;;;;3.92;2.90;;;12.10;55.10;;;;;;5018878;28;20461;-39
2022/04/21 01:18:33;;;;;;;5.05;2.78;;;12.10;55.20;;;;;;5035203;28;20136;-41
2022/04/21 01:20:59;;;;;;;3.78;2.75;;;12.10;55.40;;;;;;5053286;28;20024;-40
2022/04/21 01:23:24;;;;;;;3.83;3.08;;;12.10;55.60;;;;;;5052771;28;20483;-39
2022/04/21 01:25:50;;;;;;;5.88;2.63;;;12.10;55.70;;;;;;5053252;28;20024;-39
2022/04/21 01:28:17;;;;;;;4.95;2.88;;;12.10;55.80;;;;;;5052956;28;20108;-38
2022/04/21 01:30:43;;;;;;;5.43;3.00;;;12.10;55.80;;;;;;5052947;28;20056;-40
2022/04/21 01:33:09;;;;;;;4.65;2.95;;;12.00;55.90;;;;;;5053157;28;20047;-39
2022/04/21 01:35:35;;;;;;;3.53;2.67;;;12.10;56.00;;;;;;5052804;28;20029;-39
2022/04/21 01:43:29;;;;;;;4.25;2.90;;;12.00;56.20;;;;;;5052673;28;20400;-39
2022/04/21 01:45:55;;;;;;;4.25;2.95;;;12.00;56.30;;;;;;5052889;28;20017;-39
2022/04/21 01:48:21;;;;;;;4.45;3.03;;;12.00;56.40;;;;;;5052506;28;20392;-39
2022/04/21 01:50:46;;;;;;;3.80;2.53;;;12.00;56.60;;;;;;5052468;28;20032;-40
2022/04/21 01:53:12;;;;;;;4.72;2.92;;;12.00;56.60;;;;;;5052571;28;20029;-39
2022/04/21 01:55:37;;;;;;;4.20;3.40;;;12.00;56.80;;;;;;5052563;28;20158;-38
2022/04/21 01:58:03;;;;;;;3.70;3.13;;;12.00;57.20;;;;;;5052309;28;20032;-38
2022/04/21 02:00:29;;;;;;;4.75;3.22;;;11.90;57.10;;;;;;5052483;28;20108;-39
2022/04/21 02:02:55;;;;;;;7.90;3.00;;;11.90;57.20;;;;;;5033663;28;20500;-39
2022/04/21 02:05:20;;;;;;;3.65;3.13;;;11.90;57.30;;;;;;5052217;28;20033;-37
2022/04/21 02:07:46;;;;;;;4.32;3.30;;;11.80;57.30;;;;;;5052254;28;20100;-39
2022/04/21 02:10:17;;;;;;;4.32;3.05;;;11.80;57.40;;;;;;5052396;28;20021;-39
2022/04/21 02:12:43;;;;;;;3.30;2.50;;;11.90;57.60;;;;;;5052518;28;20536;-50
2022/04/21 02:15:09;;;;;;;6.60;3.35;;;11.80;57.60;;;;;;5052397;28;20071;-38
2022/04/21 02:17:36;;;;;;;4.32;3.20;;;11.80;57.80;;;;;;5052053;28;20083;-39
2022/04/21 02:20:03;;;;;;;4.03;2.97;;;11.80;57.90;;;;;;5052234;28;20484;-38
2022/04/21 02:22:29;;;;;;;6.00;2.85;;;11.70;57.90;;;;;;5051972;28;20079;-38
2022/04/21 02:24:55;;;;;;;4.95;2.88;;;11.70;57.90;;;;;;5052047;28;20048;-39
2022/04/21 02:27:20;;;;;;;3.90;3.10;;;11.70;58.00;;;;;;5052169;28;20032;-38
2022/04/21 02:29:46;;;;;;;3.28;2.60;;;11.70;58.00;;;;;;5052086;28;20029;-39
2022/04/21 02:32:11;;;;;;;3.70;3.15;;;11.70;58.00;;;;;;5052096;28;20099;-39
2022/04/21 02:34:37;;;;;;;3.72;2.72;;;11.70;58.10;;;;;;5052293;28;20028;-38
2022/04/21 02:37:03;;;;;;;3.40;2.58;;;11.70;58.10;;;;;;5052262;28;20057;-38
2022/04/21 02:39:28;;;;;;;5.50;3.08;;;11.70;58.10;;;;;;5052161;28;20026;-38
2022/04/21 02:41:55;;;;;;;3.67;2.95;;;11.70;58.10;;;;;;5052249;28;20025;-40
2022/04/21 02:44:20;;;;;;;7.10;3.03;;;11.60;58.10;;;;;;5052522;28;20427;-40
2022/04/21 02:46:46;;;;;;;4.20;2.63;;;11.60;58.10;;;;;;5052484;28;20108;-38
2022/04/21 02:49:14;;;;;;;3.17;2.58;;;11.60;58.10;;;;;;5052047;28;20029;-38
2022/04/21 02:51:39;;;;;;;3.45;2.80;;;11.60;58.20;;;;;;5052170;28;20368;-39
2022/04/21 02:59:33;;;;;;;4.38;3.15;;;11.50;58.30;;;;;;5052046;28;20243;-42
2022/04/21 03:01:59;;;;;;;3.55;2.83;;;11.40;58.40;;;;;;5052109;28;20116;-39
2022/04/21 03:04:25;;;;;;;3.58;3.00;;;11.40;58.40;;;;;;5051942;28;20459;-39
2022/04/21 03:06:50;;;;;;;3.50;2.83;;;11.40;58.50;;;;;;5034184;28;20068;-39
2022/04/21 03:09:16;;;;;;;4.32;2.58;;;11.40;58.50;;;;;;5051693;28;20013;-39
2022/04/21 03:11:42;;;;;;;4.00;2.92;;;11.40;58.50;;;;;;5051774;28;20017;-39
2022/04/21 03:14:07;;;;;;;2.85;2.45;;;11.40;58.60;;;;;;5054794;28;20048;-39
2022/04/21 03:16:33;;;;;;;4.25;3.30;;;11.40;58.60;;;;;;5055426;28;20013;-39
2022/04/21 03:18:58;;;;;;;4.53;2.60;;;11.30;58.70;;;;;;5037359;28;20134;-39
2022/04/21 03:24:21;;;;;;;3.92;2.75;;;11.30;58.70;;;;;;5055568;28;20048;-38
2022/04/21 03:26:48;;;;;;;5.47;2.63;;;11.20;58.70;;;;;;5055198;28;20481;-38
2022/04/21 03:29:14;;;;;;;3.80;2.67;;;11.20;58.80;;;;;;5055121;28;20044;-37
2022/04/21 03:31:43;;;;;;;4.18;2.83;;;11.20;58.80;;;;;;5055667;28;20025;-39
2022/04/21 03:34:13;;;;;;;3.35;2.90;;;11.10;58.90;;;;;;5055364;28;20036;-39
2022/04/21 03:36:42;;;;;;;4.05;2.58;;;11.10;59.00;;;;;;5055258;28;20488;-40
2022/04/21 03:39:09;;;;;;;3.53;2.78;;;11.10;59.10;;;;;;5055038;28;20104;-39
2022/04/21 03:41:35;;;;;;;3.25;2.72;;;11.00;59.10;;;;;;5036900;28;20112;-38
2022/04/21 03:44:00;;;;;;;4.38;2.90;;;11.10;59.30;;;;;;5055269;28;20052;-39
2022/04/21 03:46:26;;;;;;;3.42;2.60;;;11.00;59.50;;;;;;5055205;28;20044;-38
2022/04/21 03:48:51;;;;;;;3.75;3.05;;;10.90;59.60;;;;;;5054817;28;20477;-39
2022/04/21 03:51:17;;;;;;;4.95;2.88;;;10.90;59.60;;;;;;5055131;28;20071;-38
2022/04/21 03:53:43;;;;;;;4.75;3.05;;;10.90;60.40;;;;;;5055185;28;20380;-39
2022/04/21 03:56:08;;;;;;;3.63;2.65;;;10.80;59.90;;;;;;5054852;28;20029;-39
2022/04/21 03:58:34;;;;;;;4.03;3.03;;;10.80;60.10;;;;;;5054566;28;20537;-38
2022/04/21 04:01:00;;;;;;;4.03;2.80;;;10.70;60.20;;;;;;5054872;28;20419;-37
2022/04/21 04:03:25;;;;;;;4.35;3.42;;;10.70;60.40;;;;;;5054647;28;20024;-39
2022/04/21 04:05:51;;;;;;;4.05;3.13;;;10.60;60.60;;;;;;5054630;28;20075;-38
2022/04/21 04:11:01;;;;;;;3.97;3.50;;;10.50;61.00;;;;;;5054747;28;20036;-37
2022/04/21 04:13:26;;;;;;;4.82;2.85;;;10.50;61.10;;;;;;5036550;28;20484;-37
2022/04/21 04:15:54;;;;;;;6.93;3.10;;;10.40;61.10;;;;;;5054747;28;20437;-38
2022/04/21 04:18:21;;;;;;;3.97;3.13;;;10.50;61.30;;;;;;5054272;28;20025;-38
2022/04/21 04:20:47;;;;;;;5.00;3.20;;;10.40;61.40;;;;;;5054361;28;20021;-38
2022/04/21 04:23:17;;;;;;;5.22;3.22;;;10.40;61.50;;;;;;5054044;28;20377;-39
2022/04/21 04:25:42;;;;;;;7.50;3.42;;;10.40;61.70;;;;;;5053142;28;20036;-38
2022/04/21 04:28:08;;;;;;;4.90;3.13;;;10.40;61.80;;;;;;5054114;28;20017;-38
2022/04/21 04:30:33;;;;;;;4.70;3.00;;;10.40;61.90;;;;;;5053874;28;20403;-37
2022/04/21 04:32:59;;;;;;;7.05;3.80;;;10.30;61.80;;;;;;5054009;28;20480;-39
2022/04/21 04:35:25;;;;;;;4.18;3.42;;;10.40;62.20;;;;;;5053968;28;20109;-38
2022/04/21 04:37:52;;;;;;;3.45;2.78;;;10.30;62.30;;;;;;5054032;28;20060;-42
2022/04/21 04:40:18;;;;;;;4.18;3.50;;;10.30;62.40;;;;;;5053816;28;20033;-37
2022/04/21 04:42:44;;;;;;;4.03;3.00;;;10.20;62.50;;;;;;5054089;28;20045;-37
2022/04/21 04:47:54;;;;;;;3.45;2.90;;;10.20;63.20;;;;;;5053806;28;20075;-39
2022/04/21 04:50:20;;;;;;;4.07;2.97;;;10.20;62.60;;;;;;5053787;28;20025;-38
2022/04/21 04:52:47;;;;;;;4.32;3.15;;;10.20;62.70;;;;;;5053755;28;20389;-38
2022/04/21 04:55:13;;;;;;;6.07;3.05;;;10.20;62.80;;;;;;5053983;28;20508;-40
2022/04/21 04:57:39;;;;;;;5.18;3.10;;;10.20;62.90;;;;;;5053920;28;20021;-38
2022/04/21 05:00:07;;;;;;;3.80;2.85;;;10.10;63.00;;;;;;5053522;28;20060;-38
2022/04/21 05:02:33;;;;;;;4.10;3.05;;;10.20;63.00;;;;;;5053745;28;20104;-40
2022/04/21 05:04:58;;;;;;;4.78;3.13;;;10.20;63.10;;;;;;5053443;28;20110;-39
2022/04/21 05:07:24;;;;;;;4.40;2.80;;;10.20;63.20;;;;;;5053375;28;20025;-39
2022/04/21 05:09:50;;;;;;;3.35;2.85;;;10.20;63.20;;;;;;5053461;28;20202;-39
2022/04/21 05:12:16;;;;;;;8.13;3.50;;;10.20;63.20;;;;;;5053150;28;20475;-39
2022/04/21 05:14:41;;;;;;;6.55;2.83;;;10.20;63.10;;;;;;5053582;28;20021;-39
2022/04/21 05:17:07;;;;;;;4.72;2.60;;;10.20;63.10;;;;;;5053247;28;20109;-43
2022/04/21 05:19:33;;;;;;;6.47;2.85;;;10.30;63.10;;;;;;5053307;28;20022;-38
2022/04/21 05:22:04;;;;;;;2.92;2.60;;;10.30;63.10;;;;;;5052925;28;20021;-40
2022/04/21 05:24:33;;;;;;;3.60;2.80;;;10.30;63.00;;;;;;5053097;28;20051;-39
2022/04/21 05:27:00;;;;;;;3.03;2.72;;;10.30;63.10;;;;;;5052539;28;20131;-48
2022/04/21 05:32:11;;;;;;;4.47;2.80;;;10.40;63.00;;;;;;5053326;28;20554;-38
2022/04/21 05:34:37;;;;;;;3.13;2.50;;;10.40;62.90;;;;;;5035405;28;20028;-39
2022/04/21 05:37:04;;;;;;;2.95;2.65;;;10.40;62.80;;;;;;5052918;28;20017;-39
2022/04/21 05:39:30;;;;;;;3.58;2.53;;;10.40;62.80;;;;;;5034914;28;20095;-40
2022/04/21 05:41:58;;;;;;;4.13;2.95;;;10.50;62.90;;;;;;5052945;28;20415;-38
2022/04/21 05:44:25;;;;;;;3.58;2.75;;;10.50;62.80;;;;;;5052985;28;20025;-38
2022/04/21 05:46:51;;;;;;;3.75;2.63;;;10.60;62.80;;;;;;5052878;28;20086;-39
2022/04/21 05:49:17;;;;;;;3.75;2.65;;;10.60;62.70;;;;;;5052653;28;20021;-38
2022/04/21 05:51:46;;;;;;;3.55;2.65;;;10.60;62.70;;;;;;5051991;28;20037;-38
2022/04/21 05:54:12;;;;;;;3.17;2.40;;;10.70;62.60;;;;;;5052613;28;20032;-39
2022/04/21 05:56:38;;;;;;;4.15;2.53;;;10.70;62.50;;;;;;5052375;28;20049;-44
2022/04/21 05:59:04;;;;;;;2.60;2.40;;;10.80;62.50;;;;;;5052627;28;20033;-38
2022/04/21 06:01:30;;;;;;;3.30;2.65;;;10.90;62.40;;;;;;5052431;28;20025;-39
2022/04/21 06:03:56;;;;;;;3.53;2.40;;;10.80;62.30;;;;;;5052737;28;20384;-39
2022/04/21 06:06:22;;;;;;;5.63;2.58;;;10.90;62.20;;;;;;5052470;28;20096;-38
2022/04/21 06:08:47;;;;;;;2.58;2.20;;;10.90;62.10;;;;;;5052451;28;20048;-38
2022/04/21 06:11:13;;;;;;;4.38;2.60;;;11.00;62.00;;;;;;5034750;28;20025;-38
2022/04/21 06:13:41;;;;;;;3.92;2.00;;;11.10;62.00;;;;;;5052815;28;20052;-38
2022/04/21 06:16:07;;;;;;;3.17;2.45;;;11.10;62.00;;;;;;5052781;28;20113;-38
2022/04/21 06:18:33;;;;;;;3.03;2.20;;;11.10;62.00;;;;;;5052403;28;20028;-38
2022/04/21 06:20:58;;;;;;;3.85;2.50;;;11.10;61.80;;;;;;5052476;28;20021;-38
2022/04/21 06:23:24;;;;;;;2.35;2.15;;;11.20;61.80;;;;;;5052033;28;20400;-38
2022/04/21 06:25:53;;;;;;;4.60;2.20;;;11.20;61.70;;;;;;5052193;28;20048;-38
2022/04/21 06:28:19;;;;;;;2.63;2.42;;;11.30;61.60;;;;;;5052428;28;20022;-43
2022/04/21 06:30:45;;;;;;;3.05;2.40;;;11.30;61.50;;;;;;5052191;28;20337;-37
2022/04/21 06:33:10;;;;;;;2.53;2.33;;;11.40;61.50;;;;;;5052187;28;20053;-38
2022/04/21 06:35:36;;;;;;;3.38;2.50;;;11.40;61.60;;;;;;5052066;28;20029;-38
2022/04/21 06:38:01;;;;;;;3.13;2.30;;;11.40;61.40;;;;;;5052214;28;20048;-39
2022/04/21 06:40:27;;;;;;;2.83;2.28;;;11.40;61.40;;;;;;5051975;28;20021;-39
2022/04/21 06:42:53;;;;;;;2.67;2.30;;;11.40;61.50;;;;;;5052120;28;20155;-39
2022/04/21 06:48:02;;;;;;;4.18;2.47;;;11.50;61.50;;;;;;5053178;28;20059;-38
2022/04/21 06:50:30;;;;;;;3.58;2.50;;;11.60;61.40;;;;;;5056056;28;20468;-38
2022/04/21 06:52:55;;;;;;;3.15;2.75;;;11.60;61.20;;;;;;5038136;28;20426;-39
2022/04/21 06:55:21;;;;;;;3.72;2.40;;;11.70;61.20;;;;;;5056007;28;20049;-45
2022/04/21 06:57:47;;;;;;;3.75;2.58;;;11.70;61.10;;;;;;5056035;28;20032;-39
2022/04/21 07:00:13;;;;;;;3.00;2.58;;;11.70;61.10;;;;;;5055900;28;20025;-39
2022/04/21 07:02:38;;;;;;;3.85;2.42;;;11.80;61.00;;;;;;5055868;28;20033;-38
2022/04/21 07:05:10;;;;;;;4.85;2.50;;;11.80;61.20;;;;;;5037900;28;20059;-37
2022/04/21 07:07:36;;;;;;;3.50;2.10;;;11.90;60.90;;;;;;5037999;28;20032;-38
2022/04/21 07:10:03;;;;;;;2.20;2.00;;;12.00;61.40;;;;;;5056116;28;20027;-39
2022/04/21 07:12:30;;;;;;;1.80;1.60;;;12.00;61.10;;;;;;5055814;28;20029;-38
2022/04/21 07:15:04;;;;;;;2.83;1.52;;;12.10;60.80;;;;;;5056005;28;20025;-41
2022/04/21 07:17:30;;;;;;;1.83;1.67;;;12.20;61.90;;;;;;5055842;28;20492;-38
2022/04/21 07:19:55;;;;;;;1.92;1.48;;;12.20;61.90;;;;;;5055815;28;20092;-38
2022/04/21 07:22:25;;;;;;;2.85;1.88;;;12.30;61.20;;;;;;5055631;28;20041;-38
2022/04/21 07:24:51;;;;;;;2.63;1.70;;;12.30;60.50;;;;;;5055542;28;20025;-39
2022/04/21 07:27:17;;;;;;;1.80;1.70;;;12.40;60.00;;;;;;5055978;28;20536;-38
2022/04/21 07:29:42;;;;;;;1.83;1.63;;;12.40;59.00;;;;;;5055437;28;20103;-39
2022/04/21 07:32:08;;;;;;;1.70;1.60;;;12.50;59.20;;;;;;5037393;28;20423;-39
2022/04/21 07:34:34;;;;;;;2.30;1.77;;;12.50;58.20;;;;;;5055326;28;20017;-39
2022/04/21 07:37:00;;;;;;;2.70;1.52;;;12.50;58.10;;;;;;5037227;28;20477;-39
2022/04/21 07:39:26;;;;;;;2.22;1.65;;;12.50;60.20;;;;;;5055132;28;20429;-38
2022/04/21 07:41:51;;;;;;;2.65;2.08;;;12.60;58.10;;;;;;5055489;28;20426;-38
2022/04/21 07:44:17;;;;;;;3.70;1.77;;;12.70;57.70;;;;;;5055481;28;20021;-38
2022/04/21 07:46:43;;;;;;;2.03;1.73;;;12.70;57.30;;;;;;5055142;28;20053;-39
2022/04/21 07:53:12;;;;;;;;;;;12.80;57.60;;;;;;5055283;28;20059;-41
2022/04/21 07:54:38;;;;;;;1.80;1.40;;;12.80;59.00;;;;;;5054708;28;19916;-39
2022/04/21 07:57:03;;;;;;;1.40;1.30;;;12.90;57.40;;;;;;5055062;28;20020;-39
2022/04/21 07:59:29;;;;;;;1.40;1.27;;;13.00;57.40;;;;;;5053470;28;20091;-38
2022/04/21 08:01:55;;;;;;;1.60;1.50;;;13.00;57.30;;;;;;5054781;28;20392;-39
2022/04/21 08:04:21;;;;;;;2.78;1.70;;;13.10;56.60;;;;;;5054944;28;20350;-38
2022/04/21 08:06:47;;;;;;;1.80;1.30;;;13.20;56.50;;;;;;5054574;28;20075;-36
2022/04/21 08:09:12;;;;;;;2.05;1.60;;;13.20;56.40;;;;;;5054651;28;20032;-38
2022/04/21 08:11:38;;;;;;;3.08;1.45;;;13.30;57.30;;;;;;5054830;28;20017;-39
2022/04/21 08:14:03;;;;;;;1.48;1.38;;;13.40;57.10;;;;;;5055013;28;20524;-39
2022/04/21 08:16:29;;;;;;;2.97;1.60;;;13.50;56.60;;;;;;5054591;28;20530;-39
2022/04/21 08:18:55;;;;;;;1.55;1.25;;;13.60;56.40;;;;;;5054316;28;20029;-38
2022/04/21 08:21:20;;;;;;;2.65;1.80;;;13.60;58.40;;;;;;5054531;28;20215;-39
2022/04/21 08:23:47;;;;;;;1.83;1.60;;;13.70;58.20;;;;;;5054221;28;20090;-38
2022/04/21 08:34:25;;;;;;;2.53;1.70;;;14.00;56.70;;;;;;5054545;28;20106;-41
2022/04/21 08:36:51;;;;;;;2.50;1.55;;;14.00;54.80;;;;;;5054097;28;20080;-40
2022/04/21 08:39:16;;;;;;;3.22;1.67;;;14.00;53.90;;;;;;5054090;28;20071;-38
2022/04/21 08:41:50;;;;;;;3.25;1.55;;;14.00;53.10;;;;;;5054094;28;20024;-39
2022/04/21 08:44:19;;;;;;;1.75;1.30;;;14.00;52.70;;;;;;5035972;28;20392;-39
2022/04/21 08:46:46;;;;;;;1.50;1.40;;;14.00;52.40;;;;;;5036108;28;20096;-38
2022/04/21 08:49:15;;;;;;;2.28;1.38;;;14.10;53.20;;;;;;5054297;28;20072;-39
2022/04/21 08:51:41;;;;;;;1.70;1.15;;;14.20;54.70;;;;;;5053739;28;20021;-39
2022/04/21 08:54:07;;;;;;;2.70;1.55;;;14.20;54.30;;;;;;5053947;28;20102;-39
2022/04/21 08:56:33;;;;;;;2.50;1.40;;;14.30;52.70;;;;;;5053615;28;20021;-38
2022/04/21 08:58:58;;;;;;;3.17;1.52;;;14.30;52.60;;;;;;5053663;28;20047;-38
2022/04/21 09:01:25;;;;;;;1.90;1.40;;;14.30;52.90;;;;;;5053912;28;20021;-38
2022/04/21 09:03:51;;;;;;;1.95;1.55;;;14.30;54.60;;;;;;5036004;28;20021;-40
2022/04/21 09:06:24;;;;;;;2.17;1.50;;;14.40;53.90;;;;;;5053735;28;20075;-39
2022/04/21 09:09:13;;;;;;;1.17;1.13;;;14.50;53.50;;;;;;5035914;28;20037;-40
2022/04/21 09:11:43;;;;;;;1.50;1.33;;;14.60;55.40;;;;;;5053267;28;20264;-40
2022/04/21 09:14:15;;;;;;;2.55;1.48;;;14.70;56.50;;;;;;5053832;28;20038;-38
2022/04/21 09:16:40;;;;;;;1.65;1.45;;;14.80;55.80;;;;;;5053460;28;20465;-38
2022/04/21 09:19:06;;;;;;;1.85;1.40;;;14.90;54.70;;;;;;5053381;28;20021;-39
2022/04/21 09:21:41;;;;;;;1.30;1.20;;;14.90;53.30;;;;;;5053146;28;20096;-38
2022/04/21 09:24:20;;;;;;;3.60;1.40;;;14.80;53.10;;;;;;5053043;28;20060;-38
2022/04/21 09:26:46;;;;;;;4.75;1.48;;;14.90;53.90;;;;;;5053187;28;20040;-39
2022/04/21 09:29:29;;;;;;;2.70;1.42;;;14.90;52.30;;;;;;5053267;28;20606;-39
2022/04/21 09:31:57;;;;;;;1.40;1.10;;;14.90;50.30;;;;;;5053305;28;20417;-39
2022/04/21 09:34:23;;;;;;;3.25;1.30;;;14.90;51.40;;;;;;5053223;28;20052;-38
2022/04/21 09:36:49;;;;;;;3.92;1.27;;;14.90;52.70;;;;;;5052962;28;20032;-39
2022/04/21 09:39:15;;;;;;;3.90;1.30;;;15.00;55.60;;;;;;5052984;28;20035;-38
2022/04/21 09:41:44;;;;;;;1.20;1.10;;;15.20;56.10;;;;;;5053013;28;20314;-42
2022/04/21 09:46:58;;;;;;;1.88;0.90;;;15.30;54.80;;;;;;5053065;28;20040;-38
2022/04/21 09:49:41;;;;;;;1.98;1.40;;;15.30;53.90;;;;;;5034911;28;20139;-38
2022/04/21 09:52:07;;;;;;;1.75;1.58;;;15.40;53.70;;;;;;5053102;28;20037;-39
2022/04/21 09:54:36;;;;;;;1.63;1.50;;;15.40;53.60;;;;;;5052869;28;20029;-38
2022/04/21 09:57:03;;;;;;;2.58;1.33;;;15.40;51.30;;;;;;5052603;28;20043;-38
2022/04/21 09:59:29;;;;;;;1.92;1.38;;;15.40;51.70;;;;;;5052545;28;20036;-40
2022/04/21 10:01:55;;;;;;;2.15;1.30;;;15.40;55.70;;;;;;5034631;28;20083;-39
2022/04/21 10:04:22;;;;;;;1.38;1.20;;;15.50;56.30;;;;;;5052658;28;20053;-40
2022/04/21 10:06:48;;;;;;;2.10;1.50;;;15.60;55.90;;;;;;5052312;28;20028;-38
2022/04/21 10:09:18;;;;;;;2.20;1.35;;;15.70;56.00;;;;;;5034569;28;20210;-38
2022/04/21 10:11:44;;;;;;;2.20;1.40;;;15.80;54.50;;;;;;5052662;28;20107;-39
2022/04/21 10:14:12;;;;;;;1.17;1.05;;;15.80;52.90;;;;;;5052457;28;20064;-38
2022/04/21 10:16:39;;;;;;;2.75;1.27;;;15.90;53.20;;;;;;5052096;28;20032;-37
2022/04/21 10:19:05;;;;;;;1.48;1.30;;;16.00;54.00;;;;;;5052360;28;20024;-39
2022/04/21 10:21:53;;;;;;;1.38;1.08;;;16.10;53.60;;;;;;5052265;28;20054;-39
2022/04/21 10:24:23;;;;;;;1.42;1.25;;;16.10;53.60;;;;;;5051242;28;20041;-38
2022/04/21 10:26:49;;;;;;;3.15;1.50;;;16.20;53.20;;;;;;5052089;28;20078;-40
2022/04/21 10:29:23;;;;;;;2.92;1.60;;;16.20;50.10;;;;;;5034251;28;20029;-39
2022/04/21 10:31:55;;;;;;;1.55;1.40;;;16.20;48.80;;;;;;5052416;28;20028;-39
2022/04/21 10:34:38;;;;;;;2.30;1.45;;;16.10;47.90;;;;;;5052132;28;20106;-38
2022/04/21 10:37:15;;;;;;;1.50;1.30;;;16.10;48.20;;;;;;5052359;28;20112;-39
2022/04/21 10:40:07;;;;;;;2.38;1.48;;;16.10;49.10;;;;;;5051841;28;20029;-39
2022/04/21 10:42:51;;;;;;;1.40;1.20;;;16.20;49.20;;;;;;5051999;28;20048;-39
2022/04/21 10:45:22;;;;;;;2.38;1.20;;;16.30;49.90;;;;;;5051830;28;20045;-38
2022/04/21 10:48:13;;;;;;;1.05;0.98;;;16.30;50.60;;;;;;5051982;28;20481;-40
2022/04/21 10:50:40;;;;;;;1.40;1.10;;;16.50;51.00;;;;;;5051845;28;20036;-38
2022/04/21 10:58:36;;;;;;;1.58;1.20;;;16.70;52.00;;;;;;5052090;28;20052;-38
2022/04/21 11:01:10;;;;;;;1.77;1.27;;;16.80;51.50;;;;;;5051887;28;20029;-39
2022/04/21 11:03:39;;;;;;;1.40;1.30;;;16.80;50.40;;;;;;5051871;28;20044;-39
2022/04/21 11:06:08;;;;;;;1.33;1.23;;;16.90;48.90;;;;;;5051819;28;20472;-39
2022/04/21 11:08:34;;;;;;;1.80;1.40;;;16.80;49.00;;;;;;5051866;28;20044;-38
2022/04/21 11:11:00;;;;;;;2.10;1.23;;;16.90;49.40;;;;;;5051941;28;20033;-38
2022/04/21 11:13:47;;;;;;;1.73;1.40;;;16.90;49.70;;;;;;5051876;28;20037;-38
2022/04/21 11:16:42;;;;;;;1.23;1.10;;;17.00;50.00;;;;;;5051796;28;20040;-39
2022/04/21 11:19:30;;;;;;;1.73;1.30;;;17.20;48.30;;;;;;5051568;28;20508;-38
2022/04/21 11:22:00;;;;;;;1.17;1.08;;;17.30;47.60;;;;;;5051433;28;20029;-38
2022/04/21 11:24:26;;;;;;;2.22;1.38;;;17.20;46.90;;;;;;5051675;28;20029;-39
2022/04/21 11:26:56;;;;;;;2.17;1.67;;;17.20;47.00;;;;;;5051878;28;20041;-40
2022/04/21 11:29:22;;;;;;;1.67;1.50;;;17.10;45.30;;;;;;5051779;28;20036;-38
2022/04/21 11:31:48;;;;;;;2.13;1.92;;;17.10;46.00;;;;;;5052007;28;20025;-37
2022/04/21 11:34:24;;;;;;;2.60;1.73;;;17.10;45.20;;;;;;5053340;28;20029;-40
2022/04/21 11:36:53;;;;;;;1.67;1.45;;;17.10;46.10;;;;;;5055447;28;20052;-39
2022/04/21 11:39:20;;;;;;;2.65;1.40;;;17.20;46.00;;;;;;5037376;28;20037;-38
2022/04/21 11:41:52;;;;;;;2.78;1.63;;;17.20;46.90;;;;;;5055677;28;20381;-39
2022/04/21 11:44:21;;;;;;;1.30;1.20;;;17.40;46.70;;;;;;5055411;28;20039;-37
2022/04/21 11:46:48;;;;;;;1.77;1.40;;;17.50;47.90;;;;;;5055569;28;20063;-39
2022/04/21 11:49:13;;;;;;;1.40;1.25;;;17.60;47.60;;;;;;5055459;28;20029;-40
2022/04/21 11:51:41;;;;;;;1.58;1.48;;;17.70;49.30;;;;;;5055220;28;20104;-39
2022/04/21 11:54:08;;;;;;;3.65;1.40;;;17.90;48.40;;;;;;5036986;28;20036;-39
2022/04/21 11:56:35;;;;;;;3.88;1.55;;;17.90;49.00;;;;;;5054713;28;20496;-39
2022/04/21 11:59:08;;;;;;;1.85;1.48;;;18.10;47.90;;;;;;5055000;28;20037;-38
2022/04/21 12:07:08;;;;;;;2.83;1.17;;;18.50;48.70;;;;;;5055050;28;20152;-40
2022/04/21 12:09:34;;;;;;;1.67;1.02;;;18.60;49.10;;;;;;5036675;28;20043;-39
2022/04/21 12:12:03;;;;;;;1.65;1.35;;;18.90;48.60;;;;;;5054981;28;20095;-38
2022/04/21 12:14:30;;;;;;;2.03;1.15;;;19.10;47.70;;;;;;5054610;28;20488;-40
2022/04/21 12:17:00;;;;;;;1.30;1.20;;;19.30;47.50;;;;;;5054335;28;20064;-38
2022/04/21 12:19:32;;;;;;;1.25;1.15;;;19.50;47.90;;;;;;5054257;28;20123;-40
2022/04/21 12:22:08;;;;;;;1.17;1.08;;;19.70;47.90;;;;;;5054373;28;20052;-39
2022/04/21 12:24:35;;;;;;;1.20;1.10;;;19.90;48.00;;;;;;5054594;28;20041;-41
2022/04/21 12:27:04;;;;;;;2.63;1.60;;;19.90;48.20;;;;;;5054224;28;20068;-40
2022/04/21 12:29:31;;;;;;;2.63;1.27;;;19.90;46.80;;;;;;5054366;28;20033;-41
2022/04/21 12:32:02;;;;;;;1.70;1.45;;;19.90;47.00;;;;;;5054424;28;20024;-38
2022/04/21 12:34:30;;;;;;;2.28;1.20;;;19.80;46.70;;;;;;5053493;28;20083;-38
2022/04/21 12:36:58;;;;;;;1.77;1.20;;;19.80;47.00;;;;;;5054103;28;20029;-39
2022/04/21 12:39:26;;;;;;;1.65;1.20;;;19.70;47.00;;;;;;5054185;28;20029;-40
2022/04/21 12:41:53;;;;;;;2.13;1.25;;;19.70;47.80;;;;;;5054288;28;20024;-39
2022/04/21 12:44:22;;;;;;;1.75;1.58;;;19.70;46.80;;;;;;5054287;28;20031;-38
2022/04/21 12:47:23;;;;;;;2.47;1.65;;;19.80;47.50;;;;;;5053336;28;20028;-39
2022/04/21 12:49:55;;;;;;;7.15;1.67;;;19.80;46.90;;;;;;5035317;28;20045;-28
2022/04/21 12:52:30;;;;;;;2.67;1.75;;;19.80;45.10;;;;;;5053819;28;20021;-30
2022/04/21 12:54:55;;;;;;;1.92;1.50;;;19.80;45.60;;;;;;5053904;28;20500;-32
2022/04/21 12:57:21;;;;;;;1.20;1.10;;;19.70;46.70;;;;;;5053649;28;20107;-30
2022/04/21 12:59:47;;;;;;;1.48;1.38;;;19.70;47.80;;;;;;5053464;28;20025;-31
2022/04/21 13:02:13;;;;;;;2.28;1.55;;;19.70;48.10;;;;;;5053581;28;20056;-32
2022/04/21 13:04:39;;;;;;;3.33;1.63;;;19.70;48.20;;;;;;5053413;28;20427;-29
2022/04/21 13:07:07;;;;;;;7.50;2.10;;;19.80;47.30;;;;;;5053531;28;20051;-32
2022/04/21 13:09:33;;;;;;;1.30;1.20;;;19.80;47.20;;;;;;5053360;28;20101;-31
2022/04/21 13:11:58;;;;;;;2.67;1.60;;;19.80;47.60;;;;;;5035678;28;20104;-34
2022/04/21 13:14:24;;;;;;;4.78;1.58;;;19.80;47.60;;;;;;5053117;28;20435;-33
2022/04/21 13:16:50;;;;;;;2.83;1.90;;;19.80;47.10;;;;;;5053332;28;20364;-33
2022/04/21 13:19:15;;;;;;;2.72;1.50;;;19.70;46.30;;;;;;5035361;28;20431;-31
2022/04/21 13:21:53;;;;;;;3.08;1.63;;;19.60;47.90;;;;;;5053043;28;20376;-33
2022/04/21 13:24:25;;;;;;;3.17;1.80;;;19.60;47.80;;;;;;5052793;28;20051;-31
2022/04/21 13:26:54;;;;;;;4.43;1.88;;;19.50;46.20;;;;;;5053183;28;20047;-34
2022/04/21 13:29:20;;;;;;;1.10;1.00;;;19.60;47.10;;;;;;5052965;28;20033;-34
2022/04/21 13:34:31;;;;;;;1.55;1.45;;;19.80;47.90;;;;;;5053107;28;20515;-35
2022/04/21 13:36:57;;;;;;;1.13;1.02;;;19.90;48.00;;;;;;5052897;28;20033;-47
2022/04/21 13:39:22;;;;;;;3.22;1.13;;;20.00;48.80;;;;;;5052659;28;20051;-46
2022/04/21 13:41:48;;;;;;;2.42;1.40;;;20.10;48.90;;;;;;5053105;28;20047;-46
2022/04/21 13:44:15;;;;;;;1.73;1.40;;;20.10;47.40;;;;;;5052903;28;20017;-47
2022/04/21 13:46:41;;;;;;;4.05;1.92;;;20.20;47.10;;;;;;5052899;28;20491;-46